createdAt,value
2019-05-12T00:01:58.774Z,102550.91
2019-05-12T00:04:28.179Z,102545.22
2019-05-12T00:06:58.534Z,102552.84
2019-05-12T00:09:28.467Z,102551.28
2019-05-12T00:11:59.103Z,102546.36
2019-05-12T00:14:28.614Z,102540.06
2019-05-12T00:16:58.180Z,102546.30
2019-05-12T00:19:28.547Z,102553.38
2019-05-12T00:21:58.758Z,102552.37
2019-05-12T00:24:28.271Z,102554.59
2019-05-12T00:26:59.836Z,102553.98
2019-05-12T00:29:29.144Z,102553.54
2019-05-12T00:31:58.474Z,102555.55
2019-05-12T00:34:28.859Z,102561.61
2019-05-12T00:36:58.671Z,102574.11
2019-05-12T00:39:28.048Z,102576.98
2019-05-12T00:41:58.715Z,102576.92
2019-05-12T00:44:28.507Z,102581.81
2019-05-12T00:46:57.956Z,102588.50
2019-05-12T00:49:29.007Z,102585.53
2019-05-12T00:51:58.774Z,102592.20
2019-05-12T00:54:28.613Z,102595.40
2019-05-12T00:56:58.592Z,102595.28
2019-05-12T00:59:28.119Z,102599.50
2019-05-12T01:01:58.634Z,102600.13
2019-05-12T01:04:29.100Z,102608.63
2019-05-12T01:06:58.643Z,102606.80
2019-05-12T01:09:28.348Z,102606.63
2019-05-12T01:11:58.772Z,102611.75
2019-05-12T01:14:28.400Z,102612.91
2019-05-12T01:16:57.965Z,102617.95
2019-05-12T01:19:28.830Z,102620.83
2019-05-12T01:21:58.787Z,102625.06
2019-05-12T01:24:28.459Z,102628.08
2019-05-12T01:26:58.335Z,102635.60
2019-05-12T01:29:28.272Z,102632.17
2019-05-12T01:32:11.077Z,102639.77
2019-05-12T01:34:40.426Z,102643.34
2019-05-12T01:37:24.797Z,102639.58
2019-05-12T01:39:54.429Z,102637.03
2019-05-12T01:42:24.179Z,102637.13
2019-05-12T01:44:53.439Z,102651.30
2019-05-12T01:47:22.752Z,102656.30
2019-05-12T01:49:52.069Z,102668.40
2019-05-12T01:52:21.519Z,102671.36
2019-05-12T01:54:50.791Z,102680.06
2019-05-12T01:57:20.133Z,102677.31
2019-05-12T01:59:49.381Z,102680.13
2019-05-12T02:02:18.799Z,102681.02
2019-05-12T02:05:10.922Z,102688.97
2019-05-12T02:07:49.353Z,102687.77
2019-05-12T02:10:19.319Z,102693.95
2019-05-12T02:12:50.223Z,102695.09
2019-05-12T02:15:23.995Z,102698.78
2019-05-12T02:17:53.326Z,102702.58
2019-05-12T02:20:30.309Z,102706.27
2019-05-12T02:22:59.652Z,102705.80
2019-05-12T02:25:29.083Z,102705.97
2019-05-12T02:27:58.716Z,102713.58
2019-05-12T02:30:30.384Z,102711.76
2019-05-12T02:32:59.841Z,102714.97
2019-05-12T02:39:31.616Z,102718.78
2019-05-12T02:42:34.221Z,102722.94
2019-05-12T02:45:35.575Z,102726.52
2019-05-12T02:54:50.589Z,102751.41
2019-05-12T02:57:34.306Z,102754.19
2019-05-12T03:02:54.751Z,102764.84
2019-05-12T03:05:35.733Z,102777.80
2019-05-12T03:08:34.866Z,102771.38
2019-05-12T03:11:29.938Z,102774.81
2019-05-12T03:14:00.033Z,102775.69
2019-05-12T03:16:29.479Z,102781.05
2019-05-12T03:18:58.777Z,102778.61
2019-05-12T03:21:28.153Z,102785.03
2019-05-12T03:23:57.444Z,102792.05
2019-05-12T03:26:26.735Z,102799.66
2019-05-12T03:28:56.104Z,102786.64
2019-05-12T03:31:31.744Z,102793.11
2019-05-12T03:33:59.997Z,102797.93
2019-05-12T03:36:34.858Z,102805.55
2019-05-12T03:38:58.750Z,102809.23
2019-05-12T03:41:28.087Z,102813.19
2019-05-12T03:43:57.389Z,102811.38
2019-05-12T03:46:26.683Z,102819.16
2019-05-12T03:48:56.067Z,102823.50
2019-05-12T03:51:25.464Z,102829.66
2019-05-12T03:53:55.890Z,102829.95
2019-05-12T03:56:26.078Z,102840.84
2019-05-12T03:58:55.564Z,102843.30
2019-05-12T04:01:25.837Z,102838.92
2019-05-12T04:03:55.825Z,102839.48
2019-05-12T04:06:25.153Z,102842.05
2019-05-12T04:08:57.370Z,102851.73
2019-05-12T04:11:25.608Z,102855.66
2019-05-12T04:13:55.212Z,102857.69
2019-05-12T04:16:25.090Z,102862.47
2019-05-12T04:18:55.197Z,102868.52
2019-05-12T04:21:24.805Z,102869.14
2019-05-12T04:23:55.038Z,102880.73
2019-05-12T04:26:25.504Z,102885.61
2019-05-12T04:28:55.075Z,102879.17
2019-05-12T04:31:25.076Z,102892.16
2019-05-12T04:33:54.972Z,102884.89
2019-05-12T04:36:25.139Z,102892.09
2019-05-12T04:38:55.553Z,102892.81
2019-05-12T04:41:26.149Z,102895.98
2019-05-12T04:43:55.663Z,102904.07
2019-05-12T04:46:25.488Z,102905.70
2019-05-12T04:48:54.965Z,102906.73
2019-05-12T04:51:25.879Z,102910.74
2019-05-12T04:53:55.450Z,102922.22
2019-05-12T04:56:25.277Z,102922.38
2019-05-12T04:58:54.854Z,102923.27
2019-05-12T05:01:25.327Z,102925.19
2019-05-12T05:03:55.212Z,102932.42
2019-05-12T05:06:25.555Z,102940.20
2019-05-12T05:08:54.923Z,102947.88
2019-05-12T05:11:25.099Z,102946.89
2019-05-12T05:13:55.067Z,102956.02
2019-05-12T05:16:25.069Z,102962.42
2019-05-12T05:18:54.491Z,102973.62
2019-05-12T05:21:24.118Z,102970.91
2019-05-12T05:23:53.823Z,102982.54
2019-05-12T05:26:27.810Z,102975.73
2019-05-12T05:28:54.398Z,102988.14
2019-05-12T05:31:24.339Z,102984.94
2019-05-12T05:33:53.849Z,102985.09
2019-05-12T05:36:25.034Z,102993.16
2019-05-12T05:38:57.308Z,103001.73
2019-05-12T05:41:25.311Z,103016.87
2019-05-12T05:43:58.373Z,103012.24
2019-05-12T05:46:25.795Z,103007.55
2019-05-12T05:48:55.140Z,103007.81
2019-05-12T05:51:24.431Z,103010.89
2019-05-12T05:53:54.118Z,103019.73
2019-05-12T05:56:38.452Z,103015.44
2019-05-12T05:58:54.730Z,103019.04
2019-05-12T06:01:24.664Z,103012.22
2019-05-12T06:03:58.385Z,103010.38
2019-05-12T06:06:25.342Z,103020.21
2019-05-12T06:08:58.715Z,103017.81
2019-05-12T06:11:28.639Z,103015.44
2019-05-12T06:14:03.094Z,103019.66
2019-05-12T06:16:29.094Z,103035.81
2019-05-12T06:18:58.350Z,103035.59
2019-05-12T06:21:29.164Z,103047.95
2019-05-12T06:23:58.616Z,103047.55
2019-05-12T06:26:32.721Z,103051.69
2019-05-12T06:28:58.943Z,103053.98
2019-05-12T06:31:29.732Z,103052.61
2019-05-12T06:33:59.188Z,103068.06
2019-05-12T06:36:28.823Z,103065.08
2019-05-12T06:38:58.104Z,103066.59
2019-05-12T06:41:27.345Z,103064.00
2019-05-12T06:43:56.592Z,103062.47
2019-05-12T06:46:26.028Z,103065.53
2019-05-12T06:48:55.249Z,103070.02
2019-05-12T06:51:25.927Z,103064.55
2019-05-12T06:53:55.295Z,103073.23
2019-05-12T06:56:24.544Z,103078.88
2019-05-12T06:58:53.911Z,103087.33
2019-05-12T07:01:24.230Z,103091.27
2019-05-12T07:03:54.026Z,103085.41
2019-05-12T07:06:24.710Z,103094.64
2019-05-12T07:09:05.366Z,103098.14
2019-05-12T07:11:25.336Z,103098.59
2019-05-12T07:14:02.180Z,103103.86
2019-05-12T07:16:29.997Z,103095.49
2019-05-12T07:18:56.702Z,103093.77
2019-05-12T07:21:27.267Z,103100.17
2019-05-12T07:24:00.416Z,103104.80
2019-05-12T07:26:27.816Z,103098.81
2019-05-12T07:28:57.105Z,103094.91
2019-05-12T07:31:26.485Z,103098.11
2019-05-12T07:33:55.873Z,103101.00
2019-05-12T07:36:25.978Z,103092.77
2019-05-12T07:39:03.912Z,103096.12
2019-05-12T07:41:29.894Z,103095.53
2019-05-12T07:44:01.021Z,103099.91
2019-05-12T07:46:31.219Z,103100.81
2019-05-12T07:49:00.484Z,103104.73
2019-05-12T07:51:30.238Z,103096.33
2019-05-12T07:54:00.801Z,103109.09
2019-05-12T07:56:32.770Z,103110.84
2019-05-12T07:59:01.205Z,103109.11
2019-05-12T08:01:35.884Z,103118.72
2019-05-12T08:04:01.557Z,103118.19
2019-05-12T08:06:32.702Z,103115.08
2019-05-12T08:09:04.056Z,103118.02
2019-05-12T08:11:34.656Z,103121.11
2019-05-12T08:14:04.273Z,103114.83
2019-05-12T08:16:36.782Z,103126.70
2019-05-12T08:19:04.598Z,103126.00
2019-05-12T08:21:34.869Z,103128.84
2019-05-12T08:24:05.075Z,103125.53
2019-05-12T08:26:34.417Z,103121.06
2019-05-12T08:29:04.395Z,103127.47
2019-05-12T08:31:40.132Z,103126.83
2019-05-12T08:34:04.850Z,103119.80
2019-05-12T08:36:34.390Z,103123.84
2019-05-12T08:39:11.328Z,103124.71
2019-05-12T08:41:36.673Z,103125.14
2019-05-12T08:44:06.038Z,103112.19
2019-05-12T08:46:35.500Z,103120.55
2019-05-12T08:49:05.346Z,103130.02
2019-05-12T08:51:34.837Z,103124.69
2019-05-12T08:54:07.800Z,103136.60
2019-05-12T08:56:35.243Z,103139.81
2019-05-12T08:59:09.432Z,103148.98
2019-05-12T09:01:35.567Z,103137.95
2019-05-12T09:04:11.184Z,103147.17
2019-05-12T09:06:37.033Z,103138.94
2019-05-12T09:09:08.015Z,103139.56
2019-05-12T09:11:37.358Z,103140.52
2019-05-12T09:14:06.678Z,103137.59
2019-05-12T09:16:35.950Z,103141.83
2019-05-12T09:19:10.129Z,103140.22
2019-05-12T09:21:37.185Z,103139.76
2019-05-12T09:24:06.616Z,103145.32
2019-05-12T09:26:35.901Z,103144.66
2019-05-12T09:29:07.399Z,103148.67
2019-05-12T09:31:36.208Z,103152.22
2019-05-12T09:34:11.595Z,103147.23
2019-05-12T09:36:36.488Z,103140.23
2019-05-12T09:39:07.768Z,103132.89
2019-05-12T09:41:42.781Z,103136.19
2019-05-12T09:44:08.461Z,103146.00
2019-05-12T09:46:37.845Z,103147.31
2019-05-12T09:49:07.107Z,103159.70
2019-05-12T09:51:41.472Z,103149.05
2019-05-12T09:54:07.416Z,103157.58
2019-05-12T09:56:36.687Z,103156.22
2019-05-12T09:59:17.101Z,103156.95
2019-05-12T10:01:39.411Z,103159.34
2019-05-12T10:04:10.487Z,103168.27
2019-05-12T10:06:39.143Z,103168.67
2019-05-12T10:09:14.090Z,103171.83
2019-05-12T10:11:39.654Z,103177.76
2019-05-12T10:14:11.051Z,103179.27
2019-05-12T10:16:45.625Z,103178.71
2019-05-12T10:19:11.123Z,103170.32
2019-05-12T10:21:43.958Z,103180.92
2019-05-12T10:24:11.654Z,103177.50
2019-05-12T10:26:45.767Z,103175.95
2019-05-12T10:29:17.506Z,103178.61
2019-05-12T10:31:44.574Z,103177.91
2019-05-12T10:34:19.842Z,103179.80
2019-05-12T10:36:49.509Z,103188.69
2019-05-12T10:39:18.964Z,103179.57
2019-05-12T10:41:49.381Z,103177.14
2019-05-12T10:44:18.665Z,103181.88
2019-05-12T10:46:53.294Z,103186.25
2019-05-12T10:49:23.317Z,103182.88
2019-05-12T10:51:53.949Z,103187.06
2019-05-12T10:54:24.373Z,103178.02
2019-05-12T10:56:54.513Z,103182.13
2019-05-12T10:59:32.308Z,103186.47
2019-05-12T11:01:55.055Z,103184.25
2019-05-12T11:04:35.794Z,103184.55
2019-05-12T11:06:55.329Z,103182.37
2019-05-12T11:09:34.586Z,103175.80
2019-05-12T11:12:33.221Z,103174.63
2019-05-12T11:15:34.243Z,103185.59
2019-05-12T11:18:11.567Z,103185.17
2019-05-12T11:20:40.810Z,103179.67
2019-05-12T11:25:57.347Z,103188.27
2019-05-12T11:28:33.668Z,103181.11
2019-05-12T11:31:03.102Z,103191.48
2019-05-12T11:33:34.152Z,103188.92
2019-05-12T11:36:34.445Z,103196.14
2019-05-12T11:39:38.683Z,103194.84
2019-05-12T11:42:05.061Z,103195.38
2019-05-12T11:44:34.392Z,103184.78
2019-05-12T11:47:03.935Z,103178.12
2019-05-12T11:49:33.614Z,103173.94
2019-05-12T11:52:07.609Z,103173.59
2019-05-12T11:54:34.103Z,103180.34
2019-05-12T11:57:03.400Z,103178.82
2019-05-12T11:59:34.156Z,103178.95
2019-05-12T12:02:03.684Z,103174.33
2019-05-12T12:04:48.140Z,103175.23
2019-05-12T12:07:17.535Z,103169.48
2019-05-12T12:09:49.482Z,103169.30
2019-05-12T12:12:17.886Z,103188.20
2019-05-12T12:14:50.394Z,103176.73
2019-05-12T12:17:25.090Z,103188.77
2019-05-12T12:19:49.461Z,103176.66
2019-05-12T12:22:20.531Z,103188.30
2019-05-12T12:24:49.827Z,103195.69
2019-05-12T12:27:19.060Z,103197.27
2019-05-12T12:29:48.384Z,103201.45
2019-05-12T12:32:20.331Z,103206.84
2019-05-12T12:34:48.703Z,103205.98
2019-05-12T12:37:23.686Z,103204.09
2019-05-12T12:39:49.010Z,103206.67
2019-05-12T12:42:18.266Z,103212.19
2019-05-12T12:44:47.622Z,103215.78
2019-05-12T12:47:17.051Z,103215.70
2019-05-12T12:49:49.209Z,103209.53
2019-05-12T12:52:17.503Z,103208.76
2019-05-12T12:54:46.802Z,103215.78
2019-05-12T12:57:19.053Z,103216.11
2019-05-12T12:59:51.475Z,103210.41
2019-05-12T13:02:18.176Z,103228.28
2019-05-12T13:04:50.299Z,103226.63
2019-05-12T13:07:18.524Z,103221.94
2019-05-12T13:09:47.826Z,103231.59
2019-05-12T13:12:19.596Z,103226.20
2019-05-12T13:14:48.243Z,103229.66
2019-05-12T13:17:17.621Z,103228.24
2019-05-12T13:19:48.882Z,103236.66
2019-05-12T13:22:19.137Z,103228.12
2019-05-12T13:24:48.469Z,103227.24
2019-05-12T13:27:19.295Z,103237.63
2019-05-12T13:29:48.865Z,103238.78
2019-05-12T13:32:18.185Z,103240.86
2019-05-12T13:34:47.506Z,103252.06
2019-05-12T13:37:19.483Z,103249.40
2019-05-12T13:39:55.164Z,103244.40
2019-05-12T13:42:18.947Z,103250.62
2019-05-12T13:44:48.253Z,103252.11
2019-05-12T13:47:17.634Z,103251.94
2019-05-12T13:49:47.616Z,103248.91
2019-05-12T13:52:20.125Z,103249.41
2019-05-12T13:54:48.293Z,103247.64
2019-05-12T13:57:17.616Z,103240.42
2019-05-12T13:59:46.931Z,103249.68
2019-05-12T14:02:22.107Z,103261.09
2019-05-12T14:04:47.301Z,103262.34
2019-05-12T14:07:20.149Z,103255.56
2019-05-12T14:09:47.624Z,103251.92
2019-05-12T14:12:16.877Z,103254.33
2019-05-12T14:14:46.163Z,103244.63
2019-05-12T14:17:15.522Z,103256.72
2019-05-12T14:19:46.214Z,103255.27
2019-05-12T14:22:21.322Z,103241.05
2019-05-12T14:24:47.069Z,103241.64
2019-05-12T14:27:19.098Z,103245.88
2019-05-12T14:29:47.487Z,103247.66
2019-05-12T14:32:17.465Z,103249.92
2019-05-12T14:34:51.074Z,103253.11
2019-05-12T14:37:18.062Z,103260.77
2019-05-12T14:39:50.276Z,103267.98
2019-05-12T14:42:18.472Z,103258.89
2019-05-12T14:44:49.790Z,103263.75
2019-05-12T14:47:19.293Z,103258.14
2019-05-12T14:49:49.851Z,103265.06
2019-05-12T14:52:19.394Z,103249.50
2019-05-12T14:54:48.705Z,103258.72
2019-05-12T14:57:18.014Z,103258.71
2019-05-12T14:59:47.314Z,103264.92
2019-05-12T15:02:19.527Z,103253.50
2019-05-12T15:04:47.680Z,103257.10
2019-05-12T15:07:17.046Z,103267.39
2019-05-12T15:09:46.478Z,103257.50
2019-05-12T15:12:15.761Z,103266.86
2019-05-12T15:14:45.128Z,103252.80
2019-05-12T15:17:22.371Z,103256.48
2019-05-12T15:19:45.809Z,103274.48
2019-05-12T15:22:15.140Z,103276.02
2019-05-12T15:24:49.449Z,103273.09
2019-05-12T15:27:15.510Z,103280.82
2019-05-12T15:29:44.938Z,103270.73
2019-05-12T15:32:15.500Z,103264.59
2019-05-12T15:34:44.985Z,103272.62
2019-05-12T15:37:14.288Z,103267.44
2019-05-12T15:39:44.062Z,103272.30
2019-05-12T15:42:14.174Z,103287.20
2019-05-12T15:44:43.748Z,103286.91
2019-05-12T15:47:13.080Z,103290.44
2019-05-12T15:49:44.232Z,103282.34
2019-05-12T15:52:14.428Z,103286.70
2019-05-12T15:54:49.432Z,103281.08
2019-05-12T15:57:15.065Z,103282.09
2019-05-12T15:59:44.376Z,103295.89
2019-05-12T16:02:16.805Z,103296.72
2019-05-12T16:04:48.426Z,103297.11
2019-05-12T16:07:15.852Z,103297.64
2019-05-12T16:09:45.712Z,103287.47
2019-05-12T16:12:20.283Z,103287.86
2019-05-12T16:14:46.213Z,103294.14
2019-05-12T16:17:16.907Z,103298.95
2019-05-12T16:19:46.671Z,103302.14
2019-05-12T16:22:16.066Z,103303.97
2019-05-12T16:24:48.958Z,103304.46
2019-05-12T16:27:17.405Z,103303.51
2019-05-12T16:29:49.955Z,103297.66
2019-05-12T16:32:26.715Z,103300.23
2019-05-12T16:34:54.219Z,103294.83
2019-05-12T16:37:31.217Z,103298.16
2019-05-12T16:39:54.582Z,103293.45
2019-05-12T16:42:23.901Z,103298.19
2019-05-12T16:44:56.228Z,103296.26
2019-05-12T16:47:29.097Z,103301.70
2019-05-12T16:49:55.273Z,103296.23
2019-05-12T16:52:24.770Z,103305.49
2019-05-12T16:54:54.204Z,103308.37
2019-05-12T16:57:23.631Z,103303.45
2019-05-12T17:00:02.368Z,103308.30
2019-05-12T17:02:38.407Z,103305.55
2019-05-12T17:04:55.038Z,103312.56
2019-05-12T17:07:26.979Z,103317.17
2019-05-12T17:09:55.374Z,103311.81
2019-05-12T17:12:31.995Z,103319.95
2019-05-12T17:14:55.740Z,103314.58
2019-05-12T17:17:25.042Z,103315.92
2019-05-12T17:19:54.335Z,103317.12
2019-05-12T17:22:24.022Z,103311.77
2019-05-12T17:24:53.853Z,103310.98
2019-05-12T17:27:27.127Z,103311.75
2019-05-12T17:29:54.787Z,103319.61
2019-05-12T17:32:24.073Z,103323.73
2019-05-12T17:34:53.449Z,103323.20
2019-05-12T17:37:24.268Z,103323.68
2019-05-12T17:39:53.720Z,103334.58
2019-05-12T17:42:26.770Z,103322.73
2019-05-12T17:44:54.519Z,103327.20
2019-05-12T17:47:26.290Z,103330.66
2019-05-12T17:49:54.916Z,103331.34
2019-05-12T17:52:24.555Z,103333.09
2019-05-12T17:54:57.882Z,103336.31
2019-05-12T17:57:25.397Z,103339.29
2019-05-12T17:59:59.842Z,103341.70
2019-05-12T18:02:26.011Z,103347.45
2019-05-12T18:05:01.268Z,103357.31
2019-05-12T18:07:26.577Z,103355.55
2019-05-12T18:10:00.457Z,103356.36
2019-05-12T18:12:36.532Z,103358.59
2019-05-12T18:14:58.471Z,103369.25
2019-05-12T18:17:27.837Z,103366.93
2019-05-12T18:20:00.822Z,103369.75
2019-05-12T18:22:28.474Z,103365.77
2019-05-12T18:24:58.047Z,103365.77
2019-05-12T18:27:27.513Z,103367.91
2019-05-12T18:29:56.855Z,103373.30
2019-05-12T18:32:26.229Z,103369.65
2019-05-12T18:34:55.571Z,103378.23
2019-05-12T18:37:25.048Z,103384.02
2019-05-12T18:39:54.365Z,103377.71
2019-05-12T18:42:24.590Z,103376.91
2019-05-12T18:44:54.718Z,103388.85
2019-05-12T18:47:31.723Z,103383.70
2019-05-12T18:49:55.357Z,103396.47
2019-05-12T18:52:29.384Z,103388.21
2019-05-12T18:54:57.090Z,103387.16
2019-05-12T18:57:27.119Z,103388.83
2019-05-12T19:00:03.473Z,103395.44
2019-05-12T19:02:28.575Z,103394.64
2019-05-12T19:04:58.150Z,103409.31
2019-05-12T19:07:39.340Z,103408.44
2019-05-12T19:10:00.067Z,103413.13
2019-05-12T19:12:32.620Z,103422.20
2019-05-12T19:15:00.591Z,103410.73
2019-05-12T19:17:29.974Z,103433.06
2019-05-12T19:20:00.162Z,103436.75
2019-05-12T19:22:30.287Z,103429.09
2019-05-12T19:25:00.105Z,103429.06
2019-05-12T19:27:29.536Z,103437.09
2019-05-12T19:29:59.002Z,103433.09
2019-05-12T19:32:29.404Z,103432.92
2019-05-12T19:34:58.805Z,103442.45
2019-05-12T19:37:30.040Z,103447.78
2019-05-12T19:40:03.972Z,103461.55
2019-05-12T19:42:30.624Z,103461.40
2019-05-12T19:45:00.242Z,103466.78
2019-05-12T19:47:36.275Z,103467.40
2019-05-12T19:50:06.877Z,103475.56
2019-05-12T19:52:33.477Z,103477.88
2019-05-12T19:55:03.693Z,103475.39
2019-05-12T19:57:33.630Z,103475.88
2019-05-12T20:00:04.536Z,103478.70
2019-05-12T20:02:34.268Z,103479.50
2019-05-12T20:05:04.706Z,103484.94
2019-05-12T20:07:34.144Z,103490.09
2019-05-12T20:10:04.678Z,103487.67
2019-05-12T20:12:34.432Z,103488.73
2019-05-12T20:15:04.255Z,103498.23
2019-05-12T20:17:34.124Z,103495.28
2019-05-12T20:20:04.757Z,103505.39
2019-05-12T20:22:34.372Z,103506.01
2019-05-12T20:25:04.423Z,103510.97
2019-05-12T20:27:34.424Z,103509.53
2019-05-12T20:30:15.503Z,103520.64
2019-05-12T20:32:37.667Z,103517.50
2019-05-12T20:35:07.408Z,103519.02
2019-05-12T20:37:36.724Z,103527.34
2019-05-12T20:40:07.168Z,103525.42
2019-05-12T20:42:44.045Z,103527.95
2019-05-12T20:45:08.686Z,103532.88
2019-05-12T20:47:39.116Z,103545.02
2019-05-12T20:50:09.352Z,103546.84
2019-05-12T20:52:39.420Z,103544.08
2019-05-12T20:55:09.947Z,103551.02
2019-05-12T20:57:48.596Z,103545.66
2019-05-12T21:00:10.976Z,103552.91
2019-05-12T21:02:40.293Z,103554.23
2019-05-12T21:05:15.344Z,103560.38
2019-05-12T21:07:42.242Z,103559.70
2019-05-12T21:10:11.580Z,103559.20
2019-05-12T21:12:46.591Z,103561.93
2019-05-12T21:15:17.434Z,103566.55
2019-05-12T21:17:46.477Z,103575.56
2019-05-12T21:20:16.669Z,103583.14
2019-05-12T21:22:45.479Z,103576.56
2019-05-12T21:25:14.811Z,103575.87
2019-05-12T21:27:47.653Z,103586.84
2019-05-12T21:30:15.730Z,103584.55
2019-05-12T21:32:56.541Z,103583.98
2019-05-12T21:35:22.199Z,103576.93
2019-05-12T21:37:48.535Z,103585.78
2019-05-12T21:40:24.154Z,103588.16
2019-05-12T21:42:49.059Z,103588.03
2019-05-12T21:45:20.224Z,103585.51
2019-05-12T21:47:49.426Z,103589.95
2019-05-12T21:50:24.280Z,103583.20
2019-05-12T21:52:49.871Z,103580.78
2019-05-12T21:55:22.011Z,103596.69
2019-05-12T21:57:50.183Z,103595.05
2019-05-12T22:00:27.194Z,103595.19
2019-05-12T22:03:02.199Z,103604.82
2019-05-12T22:05:46.997Z,103601.17
2019-05-12T22:07:59.103Z,103600.38
2019-05-12T22:10:30.761Z,103596.29
2019-05-12T22:13:00.377Z,103601.95
2019-05-12T22:15:30.610Z,103611.46
2019-05-12T22:17:59.939Z,103613.00
2019-05-12T22:20:30.155Z,103608.91
2019-05-12T22:23:00.488Z,103610.22
2019-05-12T22:25:30.899Z,103609.99
2019-05-12T22:28:05.437Z,103619.42
2019-05-12T22:30:34.572Z,103624.17
2019-05-12T22:33:05.908Z,103621.38
2019-05-12T22:35:34.682Z,103617.90
2019-05-12T22:38:14.973Z,103624.17
2019-05-12T22:40:34.977Z,103635.64
2019-05-12T22:43:07.177Z,103630.70
2019-05-12T22:45:43.890Z,103628.72
2019-05-12T22:48:06.497Z,103627.45
2019-05-12T22:50:35.751Z,103636.59
2019-05-12T22:53:05.145Z,103645.98
2019-05-12T22:55:35.956Z,103647.07
2019-05-12T22:58:10.809Z,103646.63
2019-05-12T23:00:37.079Z,103657.88
2019-05-12T23:03:11.512Z,103642.43
2019-05-12T23:05:37.462Z,103652.52
2019-05-12T23:08:08.559Z,103652.02
2019-05-12T23:10:41.450Z,103664.45
2019-05-12T23:13:08.907Z,103649.13
2019-05-12T23:15:38.725Z,103647.70
2019-05-12T23:18:09.243Z,103650.36
2019-05-12T23:20:38.538Z,103660.70
2019-05-12T23:23:09.175Z,103653.44
2019-05-12T23:25:38.797Z,103655.16
2019-05-12T23:28:10.438Z,103655.27
2019-05-12T23:30:43.799Z,103660.70
2019-05-12T23:33:10.115Z,103664.64
2019-05-12T23:35:39.809Z,103658.57
2019-05-12T23:38:10.511Z,103668.09
2019-05-12T23:40:40.095Z,103670.00
2019-05-12T23:43:09.392Z,103671.02
2019-05-12T23:45:38.658Z,103679.80
2019-05-12T23:48:07.896Z,103677.70
2019-05-12T23:50:37.148Z,103680.33
2019-05-12T23:53:06.491Z,103680.52
2019-05-12T23:55:35.795Z,103679.14
2019-05-12T23:58:05.045Z,103681.02
